createdAt,value
2019-04-30T00:00:01.073Z,77.50
2019-04-30T00:02:35.854Z,77.40
2019-04-30T00:05:05.468Z,77.30
2019-04-30T00:07:35.761Z,77.40
2019-04-30T00:10:08.217Z,77.40
2019-04-30T00:12:39.476Z,77.50
2019-04-30T00:15:11.085Z,77.30
2019-04-30T00:17:40.288Z,77.40
2019-04-30T00:20:10.021Z,77.50
2019-04-30T00:22:47.177Z,77.60
2019-04-30T00:25:10.773Z,77.90
2019-04-30T00:27:40.381Z,77.70
2019-04-30T00:30:09.735Z,78.10
2019-04-30T00:32:43.815Z,77.80
2019-04-30T00:35:11.876Z,77.70
2019-04-30T00:37:42.293Z,77.70
2019-04-30T00:40:12.003Z,77.70
2019-04-30T00:42:41.925Z,77.70
2019-04-30T00:45:12.366Z,77.60
2019-04-30T00:47:44.596Z,77.30
2019-04-30T00:50:14.865Z,77.50
2019-04-30T00:52:45.761Z,77.50
2019-04-30T00:55:15.690Z,77.40
2019-04-30T00:57:47.401Z,77.50
2019-04-30T01:00:19.639Z,77.70
2019-04-30T01:02:52.507Z,77.30
2019-04-30T01:05:22.928Z,77.20
2019-04-30T01:07:52.484Z,77.00
2019-04-30T01:10:27.287Z,77.70
2019-04-30T01:13:01.804Z,77.30
2019-04-30T01:15:26.588Z,76.70
2019-04-30T01:17:56.394Z,77.50
2019-04-30T01:20:31.001Z,77.90
2019-04-30T01:23:03.012Z,77.60
2019-04-30T01:25:30.232Z,77.30
2019-04-30T01:27:59.946Z,77.30
2019-04-30T01:30:29.561Z,77.20
2019-04-30T01:33:01.067Z,77.10
2019-04-30T01:35:32.800Z,77.10
2019-04-30T01:38:04.064Z,77.10
2019-04-30T01:40:34.741Z,77.00
2019-04-30T01:43:04.121Z,77.30
2019-04-30T01:45:33.958Z,77.20
2019-04-30T01:48:08.597Z,77.00
2019-04-30T01:50:38.656Z,77.20
2019-04-30T01:53:11.532Z,77.00
2019-04-30T01:55:39.037Z,76.80
2019-04-30T01:58:23.293Z,76.70
2019-04-30T02:01:00.482Z,76.80
2019-04-30T02:03:31.217Z,77.00
2019-04-30T02:06:02.050Z,76.70
2019-04-30T02:08:31.381Z,76.70
2019-04-30T02:11:01.268Z,76.80
2019-04-30T02:13:34.343Z,76.80
2019-04-30T02:16:02.429Z,76.60
2019-04-30T02:18:31.785Z,76.70
2019-04-30T02:21:01.438Z,76.60
2019-04-30T02:23:31.149Z,76.40
2019-04-30T02:26:00.702Z,76.30
2019-04-30T02:28:30.474Z,76.40
2019-04-30T02:31:00.594Z,76.30
2019-04-30T02:33:32.148Z,76.40
2019-04-30T02:36:10.281Z,76.50
2019-04-30T02:38:44.565Z,76.60
2019-04-30T02:41:14.196Z,76.60
2019-04-30T02:43:43.986Z,76.50
2019-04-30T02:46:13.693Z,75.90
2019-04-30T02:48:43.297Z,76.90
2019-04-30T02:51:13.540Z,76.80
2019-04-30T02:53:52.457Z,76.70
2019-04-30T02:56:26.496Z,76.90
2019-04-30T02:58:55.266Z,77.20
2019-04-30T03:01:24.956Z,77.30
2019-04-30T03:03:54.340Z,77.60
2019-04-30T03:06:24.087Z,77.50
2019-04-30T03:08:53.781Z,77.80
2019-04-30T03:11:23.394Z,78.00
2019-04-30T03:13:53.093Z,78.10
2019-04-30T03:16:24.468Z,78.00
2019-04-30T03:19:03.578Z,78.20
2019-04-30T03:21:43.953Z,78.50
2019-04-30T03:24:13.302Z,78.30
2019-04-30T03:26:43.057Z,78.50
2019-04-30T03:29:12.452Z,78.60
2019-04-30T03:31:44.732Z,78.70
2019-04-30T03:34:23.090Z,78.60
2019-04-30T03:36:43.722Z,78.50
2019-04-30T03:39:13.117Z,78.60
2019-04-30T03:41:43.208Z,78.60
2019-04-30T03:44:21.368Z,78.80
2019-04-30T03:46:43.650Z,79.00
2019-04-30T03:49:13.678Z,79.00
2019-04-30T03:51:43.529Z,79.10
2019-04-30T03:54:13.241Z,78.90
2019-04-30T03:56:43.769Z,79.90
2019-04-30T03:59:13.581Z,79.10
2019-04-30T04:01:44.480Z,79.20
2019-04-30T04:04:15.501Z,79.30
2019-04-30T04:06:49.034Z,79.20
2019-04-30T04:09:31.576Z,79.30
2019-04-30T04:12:20.547Z,79.20
2019-04-30T04:14:51.173Z,78.90
2019-04-30T04:17:21.694Z,78.90
2019-04-30T04:19:54.090Z,78.50
2019-04-30T04:22:23.774Z,78.00
2019-04-30T04:24:53.590Z,77.30
2019-04-30T04:27:23.397Z,76.40
2019-04-30T04:29:52.791Z,75.40
2019-04-30T04:32:24.405Z,74.30
2019-04-30T04:34:53.462Z,73.60
2019-04-30T04:37:23.168Z,73.00
2019-04-30T04:39:52.874Z,72.30
2019-04-30T04:42:22.279Z,71.80
2019-04-30T04:44:51.605Z,71.00
2019-04-30T04:47:21.069Z,70.60
2019-04-30T04:49:53.789Z,69.20
2019-04-30T04:52:22.020Z,69.90
2019-04-30T04:54:51.648Z,70.70
2019-04-30T04:57:23.022Z,71.30
2019-04-30T04:59:52.912Z,71.60
2019-04-30T05:02:32.365Z,71.80
2019-04-30T05:05:00.726Z,71.60
2019-04-30T05:07:30.438Z,71.30
2019-04-30T05:10:00.977Z,70.70
2019-04-30T05:12:30.984Z,70.80
2019-04-30T05:15:00.688Z,69.80
2019-04-30T05:17:32.056Z,69.40
2019-04-30T05:20:01.574Z,68.40
2019-04-30T05:22:32.481Z,68.00
2019-04-30T05:25:02.194Z,67.20
2019-04-30T05:27:31.912Z,68.30
2019-04-30T05:30:01.840Z,67.60
2019-04-30T05:32:31.653Z,66.10
2019-04-30T05:35:01.549Z,65.30
2019-04-30T05:37:32.186Z,65.10
2019-04-30T05:40:01.894Z,64.70
2019-04-30T05:42:31.606Z,64.10
2019-04-30T05:45:01.414Z,63.80
2019-04-30T05:47:31.390Z,64.20
2019-04-30T05:50:01.136Z,64.50
2019-04-30T05:52:30.849Z,63.80
2019-04-30T05:55:04.479Z,64.40
2019-04-30T05:57:35.319Z,63.40
2019-04-30T06:00:10.027Z,63.20
2019-04-30T06:02:41.261Z,63.40
2019-04-30T06:05:10.866Z,62.90
2019-04-30T06:07:40.321Z,62.90
2019-04-30T06:10:14.690Z,62.20
2019-04-30T06:12:49.337Z,62.40
2019-04-30T06:15:32.953Z,63.00
2019-04-30T06:18:10.862Z,62.80
2019-04-30T06:20:33.915Z,62.00
2019-04-30T06:23:03.721Z,62.10
2019-04-30T06:25:52.884Z,61.30
2019-04-30T06:28:04.886Z,60.00
2019-04-30T06:30:34.623Z,60.20
2019-04-30T06:33:04.407Z,61.50
2019-04-30T06:35:34.177Z,62.20
2019-04-30T06:38:03.924Z,62.00
2019-04-30T06:40:33.636Z,62.40
2019-04-30T06:43:03.450Z,62.20
2019-04-30T06:45:33.061Z,62.90
2019-04-30T06:48:03.704Z,62.10
2019-04-30T06:50:33.506Z,67.30
2019-04-30T06:53:03.320Z,65.00
2019-04-30T06:55:32.756Z,62.80
2019-04-30T06:58:12.125Z,68.50
2019-04-30T07:00:36.337Z,67.20
2019-04-30T07:03:09.387Z,65.80
2019-04-30T07:05:39.150Z,61.60
2019-04-30T07:08:37.393Z,61.20
2019-04-30T07:11:19.417Z,63.00
2019-04-30T07:13:52.168Z,62.80
2019-04-30T07:16:22.726Z,63.80
2019-04-30T07:18:52.434Z,63.00
2019-04-30T07:21:22.252Z,62.40
2019-04-30T07:23:52.164Z,63.00
2019-04-30T07:26:24.305Z,63.00
2019-04-30T07:28:55.249Z,62.60
2019-04-30T07:31:24.673Z,62.50
2019-04-30T07:33:54.481Z,78.40
2019-04-30T07:36:42.523Z,65.50
2019-04-30T07:38:56.778Z,63.20
2019-04-30T07:41:26.585Z,60.70
2019-04-30T07:43:55.966Z,59.60
2019-04-30T07:46:25.592Z,58.20
2019-04-30T07:48:55.007Z,59.20
2019-04-30T07:51:25.409Z,60.30
2019-04-30T07:53:55.698Z,59.70
2019-04-30T07:56:29.317Z,60.50
2019-04-30T07:58:56.809Z,60.20
2019-04-30T08:01:29.021Z,60.20
2019-04-30T08:04:02.513Z,59.30
2019-04-30T08:06:32.235Z,59.50
2019-04-30T08:09:02.049Z,59.00
2019-04-30T08:11:34.408Z,58.20
2019-04-30T08:14:05.555Z,58.40
2019-04-30T08:16:35.636Z,58.90
2019-04-30T08:19:05.027Z,58.30
2019-04-30T08:21:34.749Z,57.00
2019-04-30T08:24:04.558Z,57.10
2019-04-30T08:26:34.165Z,57.10
2019-04-30T08:29:03.893Z,56.80
2019-04-30T08:31:33.790Z,57.40
2019-04-30T08:34:03.458Z,58.20
2019-04-30T08:36:33.264Z,58.50
2019-04-30T08:39:02.629Z,57.70
2019-04-30T08:41:33.860Z,56.90
2019-04-30T08:44:03.361Z,57.10
2019-04-30T08:46:33.169Z,55.80
2019-04-30T08:49:02.868Z,54.70
2019-04-30T08:51:32.741Z,55.50
2019-04-30T08:54:02.511Z,54.10
2019-04-30T08:56:32.428Z,54.60
2019-04-30T08:59:02.274Z,54.40
2019-04-30T09:01:31.637Z,55.60
2019-04-30T09:04:01.257Z,54.30
2019-04-30T09:06:31.065Z,55.10
2019-04-30T09:09:01.656Z,52.70
2019-04-30T09:11:43.108Z,52.50
2019-04-30T09:14:04.490Z,52.00
2019-04-30T09:16:34.334Z,52.70
2019-04-30T09:19:04.198Z,53.30
2019-04-30T09:21:34.237Z,53.20
2019-04-30T09:24:03.949Z,53.80
2019-04-30T09:26:33.557Z,54.00
2019-04-30T09:29:03.476Z,52.70
2019-04-30T09:31:33.283Z,51.10
2019-04-30T09:34:14.238Z,51.80
2019-04-30T09:36:34.470Z,52.90
2019-04-30T09:39:05.490Z,53.00
2019-04-30T09:41:36.323Z,53.70
2019-04-30T09:44:06.038Z,52.80
2019-04-30T09:46:35.843Z,53.70
2019-04-30T09:49:05.185Z,53.60
2019-04-30T09:51:34.892Z,52.20
2019-04-30T09:54:05.606Z,50.50
2019-04-30T09:56:35.706Z,51.30
2019-04-30T09:59:05.127Z,52.30
2019-04-30T10:01:35.951Z,51.80
2019-04-30T10:04:06.260Z,52.20
2019-04-30T10:06:40.074Z,52.20
2019-04-30T10:09:09.720Z,51.50
2019-04-30T10:11:50.059Z,51.90
2019-04-30T10:14:20.161Z,51.50
2019-04-30T10:16:55.100Z,51.60
2019-04-30T10:19:24.430Z,51.60
2019-04-30T10:21:54.202Z,51.20
2019-04-30T10:24:23.539Z,51.20
2019-04-30T10:26:53.587Z,52.50
2019-04-30T10:29:23.443Z,52.20
2019-04-30T10:31:52.738Z,52.70
2019-04-30T10:34:22.453Z,51.90
2019-04-30T10:36:52.113Z,51.90
2019-04-30T10:39:21.735Z,51.40
2019-04-30T10:41:51.487Z,52.60
2019-04-30T10:44:21.017Z,50.60
2019-04-30T10:46:50.698Z,50.60
2019-04-30T10:49:20.405Z,50.10
2019-04-30T10:51:49.805Z,50.40
2019-04-30T10:54:26.028Z,50.40
2019-04-30T10:56:51.411Z,50.30
2019-04-30T10:59:22.313Z,50.70
2019-04-30T11:01:51.925Z,50.10
2019-04-30T11:04:21.733Z,50.70
2019-04-30T11:06:50.985Z,49.50
2019-04-30T11:09:20.745Z,50.00
2019-04-30T11:11:50.454Z,48.70
2019-04-30T11:14:20.290Z,48.80
2019-04-30T11:16:51.632Z,48.40
2019-04-30T11:19:21.781Z,47.90
2019-04-30T11:21:51.643Z,48.30
2019-04-30T11:24:21.783Z,48.20
2019-04-30T11:26:52.428Z,48.30
2019-04-30T11:29:23.272Z,49.00
2019-04-30T11:31:54.772Z,47.60
2019-04-30T11:34:24.313Z,48.20
2019-04-30T11:36:54.006Z,48.20
2019-04-30T11:39:24.237Z,48.10
2019-04-30T11:41:53.937Z,48.40
2019-04-30T11:44:30.777Z,47.60
2019-04-30T11:46:59.599Z,48.80
2019-04-30T11:49:30.545Z,49.50
2019-04-30T11:51:59.894Z,48.60
2019-04-30T11:54:29.889Z,49.40
2019-04-30T11:57:00.169Z,48.60
2019-04-30T11:59:29.998Z,49.50
2019-04-30T12:02:01.241Z,49.10
2019-04-30T12:04:30.705Z,49.50
2019-04-30T12:07:01.997Z,49.70
2019-04-30T12:09:32.985Z,50.20
2019-04-30T12:12:02.745Z,49.70
2019-04-30T12:14:32.357Z,50.00
2019-04-30T12:17:01.636Z,49.80
2019-04-30T12:19:31.377Z,48.00
2019-04-30T12:22:01.079Z,48.70
2019-04-30T12:24:30.890Z,47.60
2019-04-30T12:27:00.275Z,48.10
2019-04-30T12:29:29.622Z,49.30
2019-04-30T12:31:59.304Z,48.40
2019-04-30T12:34:29.013Z,48.10
2019-04-30T12:36:59.637Z,48.80
2019-04-30T12:39:30.076Z,49.70
2019-04-30T12:42:02.153Z,49.40
2019-04-30T12:44:31.543Z,50.20
2019-04-30T12:47:01.357Z,50.40
2019-04-30T12:49:32.697Z,49.60
2019-04-30T12:52:08.785Z,50.00
2019-04-30T12:54:40.086Z,50.60
2019-04-30T12:57:14.117Z,51.10
2019-04-30T12:59:43.942Z,50.30
2019-04-30T13:02:13.742Z,51.00
2019-04-30T13:04:43.353Z,50.20
2019-04-30T13:07:13.876Z,50.30
2019-04-30T13:09:44.383Z,49.20
2019-04-30T13:12:14.578Z,48.90
2019-04-30T13:14:51.611Z,48.90
2019-04-30T13:17:16.304Z,50.00
2019-04-30T13:19:46.016Z,49.40
2019-04-30T13:22:15.826Z,50.30
2019-04-30T13:24:45.563Z,50.10
2019-04-30T13:27:15.153Z,50.00
2019-04-30T13:30:01.338Z,49.40
2019-04-30T13:32:32.925Z,49.90
2019-04-30T13:35:02.814Z,50.70
2019-04-30T13:37:38.881Z,50.30
2019-04-30T13:40:28.750Z,50.20
2019-04-30T13:43:00.074Z,50.90
2019-04-30T13:45:29.814Z,51.50
2019-04-30T13:47:59.515Z,51.60
2019-04-30T13:50:29.294Z,52.50
2019-04-30T13:53:00.077Z,52.20
2019-04-30T13:55:42.471Z,52.80
2019-04-30T13:58:01.124Z,52.30
2019-04-30T14:00:31.141Z,52.50
2019-04-30T14:03:09.215Z,52.80
2019-04-30T14:05:39.269Z,52.60
2019-04-30T14:08:25.664Z,52.20
2019-04-30T14:10:54.981Z,52.30
2019-04-30T14:13:26.521Z,53.00
2019-04-30T14:15:56.337Z,53.50
2019-04-30T14:18:30.662Z,54.00
2019-04-30T14:21:00.822Z,53.60
2019-04-30T14:23:28.679Z,53.60
2019-04-30T14:26:01.194Z,54.10
2019-04-30T14:28:30.663Z,54.60
2019-04-30T14:31:00.441Z,54.40
2019-04-30T14:33:30.150Z,54.80
2019-04-30T14:36:00.859Z,55.20
2019-04-30T14:38:31.618Z,55.50
2019-04-30T14:41:01.998Z,55.70
2019-04-30T14:43:41.495Z,55.20
2019-04-30T14:46:13.197Z,55.00
2019-04-30T14:48:45.794Z,55.30
2019-04-30T14:51:16.030Z,55.70
2019-04-30T14:53:49.957Z,56.70
2019-04-30T14:56:26.335Z,56.50
2019-04-30T14:58:57.664Z,56.70
2019-04-30T15:04:20.394Z,56.70
2019-04-30T15:06:49.928Z,57.10
2019-04-30T15:09:20.460Z,57.40
2019-04-30T15:11:50.186Z,57.10
2019-04-30T15:14:20.001Z,57.10
2019-04-30T15:16:49.914Z,56.90
2019-04-30T15:19:19.714Z,56.60
2019-04-30T15:21:49.458Z,57.00
2019-04-30T15:24:24.141Z,57.60
2019-04-30T15:26:57.831Z,58.20
2019-04-30T15:29:25.053Z,57.40
2019-04-30T15:31:54.919Z,57.40
2019-04-30T15:34:24.643Z,57.90
2019-04-30T15:36:54.469Z,57.90
2019-04-30T15:39:30.656Z,57.90
2019-04-30T15:41:59.545Z,57.80
2019-04-30T15:44:49.666Z,57.90
2019-04-30T15:47:20.067Z,58.60
2019-04-30T15:49:49.393Z,58.40
2019-04-30T15:52:19.251Z,58.50
2019-04-30T15:54:49.151Z,58.80
2019-04-30T15:57:19.012Z,59.10
2019-04-30T15:59:50.302Z,58.90
2019-04-30T16:02:24.642Z,59.00
2019-04-30T16:04:59.849Z,59.20
2019-04-30T16:07:30.691Z,60.30
2019-04-30T16:10:02.050Z,60.00
2019-04-30T16:12:38.540Z,60.00
2019-04-30T16:15:09.998Z,60.20
2019-04-30T16:17:41.401Z,60.50
2019-04-30T16:20:11.239Z,60.70
2019-04-30T16:22:40.677Z,60.80
2019-04-30T16:25:10.174Z,61.00
2019-04-30T16:27:39.743Z,61.70
2019-04-30T16:30:09.582Z,61.70
2019-04-30T16:32:41.121Z,62.10
2019-04-30T16:35:11.050Z,62.30
2019-04-30T16:37:40.830Z,61.70
2019-04-30T16:40:10.650Z,62.00
2019-04-30T16:42:40.789Z,62.30
2019-04-30T16:45:10.577Z,63.10
2019-04-30T16:47:40.382Z,62.90
2019-04-30T16:50:09.778Z,62.80
2019-04-30T16:52:39.601Z,62.90
2019-04-30T16:55:10.344Z,62.90
2019-04-30T16:57:40.249Z,63.10
2019-04-30T17:00:09.963Z,63.10
2019-04-30T17:02:41.306Z,62.50
2019-04-30T17:05:12.657Z,60.90
2019-04-30T17:07:44.056Z,60.50
2019-04-30T17:10:15.348Z,60.00
2019-04-30T17:13:02.897Z,59.40
2019-04-30T17:15:40.171Z,59.80
2019-04-30T17:18:11.991Z,59.60
2019-04-30T17:20:41.752Z,59.80
2019-04-30T17:23:11.554Z,59.50
2019-04-30T17:25:41.278Z,59.70
2019-04-30T17:28:11.082Z,59.50
2019-04-30T17:30:40.570Z,59.30
2019-04-30T17:33:10.407Z,59.20
2019-04-30T17:35:40.033Z,58.90
2019-04-30T17:38:10.836Z,59.00
2019-04-30T17:40:40.542Z,59.40
2019-04-30T17:43:10.168Z,60.30
2019-04-30T17:45:39.652Z,60.60
2019-04-30T17:48:10.576Z,61.30
2019-04-30T17:50:39.952Z,62.20
2019-04-30T17:53:09.717Z,63.20
2019-04-30T17:55:39.424Z,64.40
2019-04-30T17:58:09.807Z,65.40
2019-04-30T18:00:42.421Z,66.00
2019-04-30T18:03:12.035Z,66.90
2019-04-30T18:05:41.737Z,67.20
2019-04-30T18:08:11.549Z,66.90
2019-04-30T18:10:41.263Z,67.60
2019-04-30T18:13:10.882Z,67.60
2019-04-30T18:15:40.639Z,67.70
2019-04-30T18:18:28.056Z,68.20
2019-04-30T18:21:02.342Z,68.10
2019-04-30T18:23:45.276Z,68.30
2019-04-30T18:26:17.221Z,68.30
2019-04-30T18:28:47.053Z,68.70
2019-04-30T18:31:18.609Z,68.70
2019-04-30T18:33:49.240Z,68.90
2019-04-30T18:36:19.527Z,69.00
2019-04-30T18:38:50.265Z,68.90
2019-04-30T18:41:19.888Z,69.30
2019-04-30T18:43:49.577Z,69.20
2019-04-30T18:46:20.325Z,69.40
2019-04-30T18:48:52.544Z,69.50
2019-04-30T18:51:33.790Z,70.00
2019-04-30T18:53:52.373Z,70.20
2019-04-30T18:56:21.779Z,70.30
2019-04-30T18:58:51.729Z,70.70
2019-04-30T19:01:21.661Z,70.70
2019-04-30T19:03:51.377Z,71.00
2019-04-30T19:06:29.057Z,71.40
2019-04-30T19:09:09.633Z,71.60
2019-04-30T19:11:50.186Z,72.00
2019-04-30T19:14:33.311Z,72.10
2019-04-30T19:17:22.693Z,72.20
2019-04-30T19:19:57.108Z,72.50
2019-04-30T19:22:28.612Z,73.00
2019-04-30T19:25:01.866Z,73.40
2019-04-30T19:27:32.448Z,73.70
2019-04-30T19:30:02.195Z,73.70
2019-04-30T19:32:31.753Z,73.90
2019-04-30T19:35:01.515Z,74.10
2019-04-30T19:37:33.439Z,74.30
2019-04-30T19:40:05.831Z,74.50
2019-04-30T19:42:36.002Z,74.60
2019-04-30T19:45:10.184Z,74.70
2019-04-30T19:47:39.510Z,74.80
2019-04-30T19:50:09.503Z,74.90
2019-04-30T19:52:39.671Z,75.10
2019-04-30T19:55:09.380Z,75.30
2019-04-30T19:57:39.891Z,75.30
2019-04-30T20:00:09.878Z,75.50
2019-04-30T20:02:41.353Z,75.30
2019-04-30T20:05:11.322Z,75.50
2019-04-30T20:07:41.050Z,75.50
2019-04-30T20:10:10.865Z,75.70
2019-04-30T20:12:40.574Z,75.80
2019-04-30T20:15:17.298Z,75.70
2019-04-30T20:17:41.652Z,75.50
2019-04-30T20:20:11.341Z,75.60
2019-04-30T20:22:41.162Z,75.40
2019-04-30T20:25:10.871Z,75.40
2019-04-30T20:27:42.198Z,75.20
2019-04-30T20:30:13.835Z,75.10
2019-04-30T20:32:43.798Z,75.30
2019-04-30T20:35:13.403Z,75.30
2019-04-30T20:38:00.605Z,75.20
2019-04-30T20:40:43.073Z,75.40
2019-04-30T20:43:04.529Z,75.50
2019-04-30T20:45:34.246Z,75.50
2019-04-30T20:48:04.065Z,75.40
2019-04-30T20:50:34.077Z,75.50
2019-04-30T20:53:03.787Z,75.40
2019-04-30T20:55:33.709Z,75.40
2019-04-30T20:58:03.415Z,75.40
2019-04-30T21:00:32.835Z,75.30
2019-04-30T21:03:02.646Z,75.60
2019-04-30T21:05:35.468Z,76.20
2019-04-30T21:08:06.755Z,75.50
2019-04-30T21:10:41.771Z,75.40
2019-04-30T21:13:13.556Z,75.10
2019-04-30T21:15:43.883Z,75.30
2019-04-30T21:18:19.543Z,75.30
2019-04-30T21:20:50.335Z,75.30
2019-04-30T21:23:22.839Z,75.10
2019-04-30T21:25:52.679Z,75.10
2019-04-30T21:28:23.821Z,74.80
2019-04-30T21:30:54.192Z,74.90
2019-04-30T21:33:32.469Z,75.10
2019-04-30T21:36:04.501Z,75.00
2019-04-30T21:38:34.541Z,74.70
2019-04-30T21:41:05.158Z,74.50
2019-04-30T21:43:36.246Z,74.50
2019-04-30T21:46:09.356Z,74.60
2019-04-30T21:48:39.540Z,74.30
2019-04-30T21:51:10.964Z,74.10
2019-04-30T21:53:42.062Z,74.10
2019-04-30T21:56:12.068Z,74.20
2019-04-30T21:58:42.738Z,74.30
2019-04-30T22:01:14.493Z,74.30
2019-04-30T22:03:47.492Z,74.00
2019-04-30T22:06:19.832Z,73.70
2019-04-30T22:08:49.671Z,73.80
2019-04-30T22:11:19.841Z,73.80
2019-04-30T22:13:49.738Z,73.60
2019-04-30T22:16:20.384Z,73.50
2019-04-30T22:18:50.254Z,73.30
2019-04-30T22:21:19.961Z,73.10
2019-04-30T22:23:49.198Z,73.20
2019-04-30T22:26:18.966Z,73.20
2019-04-30T22:28:49.362Z,72.70
2019-04-30T22:31:19.856Z,72.50
2019-04-30T22:33:49.256Z,72.10
2019-04-30T22:36:23.442Z,72.40
2019-04-30T22:38:54.690Z,72.40
2019-04-30T22:41:26.154Z,72.20
2019-04-30T22:43:55.590Z,72.10
2019-04-30T22:46:25.259Z,72.20
2019-04-30T22:48:54.636Z,72.10
2019-04-30T22:51:24.364Z,71.90
2019-04-30T22:53:54.088Z,72.00
2019-04-30T22:56:23.789Z,71.60
2019-04-30T22:59:12.949Z,71.50
2019-04-30T23:01:59.456Z,71.50
2019-04-30T23:04:39.402Z,71.40
2019-04-30T23:07:09.009Z,71.30
2019-04-30T23:09:38.829Z,71.20
2019-04-30T23:12:08.233Z,71.00
2019-04-30T23:14:37.837Z,70.70
2019-04-30T23:17:07.953Z,70.50
2019-04-30T23:19:37.660Z,70.20
2019-04-30T23:22:06.869Z,71.00
2019-04-30T23:24:36.276Z,70.60
2019-04-30T23:27:05.868Z,70.60
2019-04-30T23:29:35.373Z,70.70
2019-04-30T23:32:04.730Z,70.90
2019-04-30T23:34:34.387Z,70.90
2019-04-30T23:37:03.774Z,70.70
2019-04-30T23:39:33.188Z,70.50
2019-04-30T23:42:02.801Z,70.30
2019-04-30T23:44:32.197Z,70.40
2019-04-30T23:47:01.645Z,70.00
2019-04-30T23:49:31.316Z,70.00
2019-04-30T23:52:01.028Z,69.90
2019-04-30T23:54:30.448Z,70.40
2019-04-30T23:57:00.137Z,70.20
2019-04-30T23:59:29.449Z,70.50
